createdAt,value
2018-08-09T00:00:43.656Z,97601.86
2018-08-09T00:03:13.430Z,97604.89
2018-08-09T00:05:42.653Z,97605.71
2018-08-09T00:08:12.601Z,97602.36
2018-08-09T00:10:41.730Z,97606.12
2018-08-09T00:13:11.241Z,97607.66
2018-08-09T00:15:40.542Z,97606.27
2018-08-09T00:18:09.826Z,97608.84
2018-08-09T00:20:39.156Z,97607.31
2018-08-09T00:23:08.416Z,97608.89
2018-08-09T00:35:45.443Z,97588.47
2018-08-09T00:38:14.971Z,97596.34
2018-08-09T00:40:44.642Z,97585.96
2018-08-09T00:43:14.843Z,97591.94
2018-08-09T00:45:46.412Z,97597.98
2018-08-09T00:48:15.854Z,97598.33
2018-08-09T00:50:47.636Z,97604.67
2018-08-09T00:53:16.763Z,97603.09
2018-08-09T00:55:46.084Z,97604.74
2018-08-09T00:58:15.307Z,97599.19
2018-08-09T01:00:44.552Z,97590.64
2018-08-09T01:03:14.344Z,97596.69
2018-08-09T01:05:43.591Z,97593.64
2018-08-09T01:08:13.150Z,97590.09
2018-08-09T01:10:42.469Z,97588.51
2018-08-09T01:13:13.292Z,97586.62
2018-08-09T01:15:42.629Z,97583.06
2018-08-09T01:18:12.594Z,97590.94
2018-08-09T01:20:42.542Z,97588.51
2018-08-09T01:23:12.239Z,97586.39
2018-08-09T01:25:41.832Z,97587.21
2018-08-09T01:28:11.754Z,97587.23
2018-08-09T01:30:40.987Z,97587.06
2018-08-09T01:33:10.129Z,97590.09
2018-08-09T01:35:39.338Z,97593.82
2018-08-09T01:38:08.488Z,97592.45
2018-08-09T01:40:37.639Z,97592.73
2018-08-09T01:43:17.534Z,97591.08
2018-08-09T01:45:46.688Z,97597.30
2018-08-09T01:48:15.929Z,97584.89
2018-08-09T01:50:45.066Z,97589.57
2018-08-09T01:53:14.742Z,97591.53
2018-08-09T01:55:44.042Z,97593.00
2018-08-09T01:58:13.672Z,97595.09
2018-08-09T02:00:42.747Z,97592.30
2018-08-09T02:03:12.020Z,97597.45
2018-08-09T02:05:41.825Z,97603.98
2018-08-09T02:08:11.144Z,97608.44
2018-08-09T02:10:40.272Z,97605.50
2018-08-09T02:13:09.381Z,97598.91
2018-08-09T02:15:38.469Z,97599.59
2018-08-09T02:18:08.707Z,97597.14
2018-08-09T02:20:58.967Z,97602.98
2018-08-09T02:23:55.646Z,97600.57
2018-08-09T02:26:34.098Z,97599.34
2018-08-09T02:29:20.516Z,97602.95
2018-08-09T02:31:49.640Z,97604.86
2018-08-09T02:34:18.696Z,97609.66
2018-08-09T02:36:52.975Z,97603.00
2018-08-09T02:39:22.245Z,97604.59
2018-08-09T02:41:51.400Z,97602.69
2018-08-09T02:44:20.569Z,97597.14
2018-08-09T02:46:49.889Z,97597.44
2018-08-09T02:49:19.061Z,97594.59
2018-08-09T02:51:48.180Z,97596.00
2018-08-09T02:54:17.583Z,97585.84
2018-08-09T02:56:46.668Z,97586.86
2018-08-09T02:59:33.068Z,97580.23
2018-08-09T03:02:02.709Z,97580.69
2018-08-09T03:04:31.859Z,97588.70
2018-08-09T03:07:01.168Z,97583.95
2018-08-09T03:09:30.294Z,97587.02
2018-08-09T03:11:59.752Z,97592.86
2018-08-09T03:14:28.753Z,97599.78
2018-08-09T03:16:59.108Z,97598.00
2018-08-09T03:19:28.238Z,97597.17
2018-08-09T03:21:57.354Z,97592.91
2018-08-09T03:24:26.522Z,97591.01
2018-08-09T03:27:02.121Z,97604.64
2018-08-09T03:29:31.277Z,97610.55
2018-08-09T03:32:00.420Z,97605.88
2018-08-09T03:34:29.593Z,97604.03
2018-08-09T03:36:58.684Z,97598.91
2018-08-09T03:39:27.759Z,97607.97
2018-08-09T03:41:56.905Z,97610.72
2018-08-09T03:44:26.493Z,97606.97
2018-08-09T03:46:55.509Z,97610.48
2018-08-09T03:49:24.757Z,97611.59
2018-08-09T03:51:53.829Z,97616.17
2018-08-09T03:54:22.846Z,97617.50
2018-08-09T03:56:51.900Z,97621.08
2018-08-09T03:59:20.887Z,97623.00
2018-08-09T04:01:49.918Z,97623.53
2018-08-09T04:04:19.015Z,97627.58
2018-08-09T04:06:48.049Z,97630.05
2018-08-09T04:09:17.045Z,97624.37
2018-08-09T04:11:46.113Z,97627.12
2018-08-09T04:14:15.108Z,97624.09
2018-08-09T04:16:44.219Z,97625.44
2018-08-09T04:19:13.707Z,97630.08
2018-08-09T04:21:42.759Z,97626.58
2018-08-09T04:24:12.189Z,97623.28
2018-08-09T04:26:41.239Z,97623.57
2018-08-09T04:29:10.288Z,97618.41
2018-08-09T04:31:39.368Z,97621.13
2018-08-09T04:34:08.589Z,97617.53
2018-08-09T04:36:37.805Z,97627.86
2018-08-09T04:39:09.007Z,97627.94
2018-08-09T04:41:37.985Z,97631.58
2018-08-09T04:44:07.053Z,97629.19
2018-08-09T04:46:36.087Z,97643.22
2018-08-09T04:49:05.178Z,97629.97
2018-08-09T04:51:34.357Z,97628.42
2018-08-09T04:54:03.369Z,97631.50
2018-08-09T04:56:32.389Z,97629.98
2018-08-09T04:59:02.497Z,97631.95
2018-08-09T05:01:31.630Z,97637.86
2018-08-09T05:04:00.708Z,97639.63
2018-08-09T05:06:29.996Z,97643.66
2018-08-09T05:08:59.088Z,97650.11
2018-08-09T05:11:28.159Z,97655.69
2018-08-09T05:13:57.371Z,97657.28
2018-08-09T05:16:26.474Z,97650.09
2018-08-09T05:18:55.674Z,97659.32
2018-08-09T05:21:24.708Z,97651.14
2018-08-09T05:23:53.763Z,97652.80
2018-08-09T05:26:22.967Z,97659.38
2018-08-09T05:28:52.011Z,97656.92
2018-08-09T05:31:21.194Z,97662.52
2018-08-09T05:33:50.497Z,97657.55
2018-08-09T05:36:19.541Z,97659.46
2018-08-09T05:38:48.725Z,97668.95
2018-08-09T05:41:17.884Z,97671.47
2018-08-09T05:43:47.082Z,97670.95
2018-08-09T05:46:16.167Z,97670.56
2018-08-09T05:48:45.282Z,97675.05
2018-08-09T05:51:14.960Z,97680.94
2018-08-09T05:53:44.241Z,97679.82
2018-08-09T05:56:13.780Z,97678.28
2018-08-09T05:58:42.784Z,97678.17
2018-08-09T06:01:12.413Z,97682.94
2018-08-09T06:03:41.463Z,97672.59
2018-08-09T06:06:10.596Z,97672.22
2018-08-09T06:08:39.730Z,97680.10
2018-08-09T06:11:08.872Z,97682.08
2018-08-09T06:13:37.954Z,97681.36
2018-08-09T06:16:07.357Z,97684.27
2018-08-09T06:18:36.519Z,97687.57
2018-08-09T06:21:05.865Z,97685.48
2018-08-09T06:23:35.076Z,97681.88
2018-08-09T06:26:04.268Z,97683.20
2018-08-09T06:28:33.363Z,97683.35
2018-08-09T06:31:02.448Z,97680.52
2018-08-09T06:33:31.911Z,97682.63
2018-08-09T06:36:00.859Z,97679.81
2018-08-09T06:38:29.906Z,97681.97
2018-08-09T06:40:58.959Z,97683.63
2018-08-09T06:43:28.022Z,97685.30
2018-08-09T06:45:57.387Z,97691.84
2018-08-09T06:48:26.443Z,97691.34
2018-08-09T06:50:57.261Z,97693.81
2018-08-09T06:53:26.401Z,97683.06
2018-08-09T06:55:55.491Z,97685.22
2018-08-09T06:58:24.700Z,97685.48
2018-08-09T07:00:53.874Z,97680.38
2018-08-09T07:03:22.873Z,97679.72
2018-08-09T07:05:54.248Z,97681.06
2018-08-09T07:08:23.414Z,97676.69
2018-08-09T07:10:52.621Z,97689.12
2018-08-09T07:13:21.788Z,97683.34
2018-08-09T07:15:50.850Z,97677.20
2018-08-09T07:18:20.003Z,97685.47
2018-08-09T07:20:49.023Z,97684.17
2018-08-09T07:23:18.040Z,97687.12
2018-08-09T07:25:47.192Z,97681.66
2018-08-09T07:28:16.268Z,97675.67
2018-08-09T07:30:45.537Z,97684.56
2018-08-09T07:33:15.139Z,97676.87
2018-08-09T07:35:44.294Z,97684.63
2018-08-09T07:38:14.417Z,97679.20
2018-08-09T07:40:44.418Z,97679.06
2018-08-09T07:43:13.949Z,97677.99
2018-08-09T07:45:43.045Z,97681.43
2018-08-09T07:48:12.541Z,97684.11
2018-08-09T07:50:41.644Z,97676.22
2018-08-09T07:53:10.761Z,97687.02
2018-08-09T07:55:40.023Z,97681.59
2018-08-09T07:58:09.351Z,97683.28
2018-08-09T08:00:38.443Z,97681.09
2018-08-09T08:03:07.921Z,97677.05
2018-08-09T08:05:37.029Z,97683.81
2018-08-09T08:08:06.343Z,97672.90
2018-08-09T08:10:35.543Z,97682.71
2018-08-09T08:13:04.762Z,97692.17
2018-08-09T08:15:33.810Z,97684.65
2018-08-09T08:18:03.004Z,97678.53
2018-08-09T08:20:32.043Z,97678.11
2018-08-09T08:23:01.298Z,97676.37
2018-08-09T08:25:30.999Z,97680.22
2018-08-09T08:28:00.775Z,97674.35
2018-08-09T08:30:32.974Z,97680.06
2018-08-09T08:33:02.040Z,97680.45
2018-08-09T08:35:31.500Z,97687.77
2018-08-09T08:38:00.626Z,97685.94
2018-08-09T08:46:15.278Z,97689.08
2018-08-09T08:48:44.440Z,97688.95
2018-08-09T08:51:14.234Z,97685.50
2018-08-09T08:53:43.487Z,97684.44
2018-08-09T08:56:13.044Z,97681.12
2018-08-09T08:58:42.254Z,97684.66
2018-08-09T09:01:12.157Z,97689.59
2018-08-09T09:03:41.426Z,97684.16
2018-08-09T09:06:10.567Z,97686.73
2018-08-09T09:08:39.821Z,97691.33
2018-08-09T09:11:08.955Z,97682.63
2018-08-09T09:13:38.175Z,97680.84
2018-08-09T09:16:07.460Z,97694.18
2018-08-09T09:18:37.819Z,97692.52
2018-08-09T09:21:07.126Z,97691.70
2018-08-09T09:33:52.996Z,97690.06
2018-08-09T09:36:22.084Z,97683.20
2018-08-09T09:38:51.348Z,97688.59
2018-08-09T09:41:20.444Z,97696.95
2018-08-09T09:43:49.535Z,97686.51
2018-08-09T09:46:22.766Z,97689.02
2018-08-09T09:48:51.885Z,97688.66
2018-08-09T09:51:21.369Z,97679.33
2018-08-09T09:53:51.476Z,97686.07
2018-08-09T09:56:20.864Z,97687.15
2018-08-09T09:58:50.100Z,97677.55
2018-08-09T10:01:24.347Z,97675.90
2018-08-09T10:03:53.363Z,97676.47
2018-08-09T10:06:22.429Z,97678.20
2018-08-09T10:08:52.028Z,97680.81
2018-08-09T10:11:21.138Z,97679.32
2018-08-09T10:13:50.277Z,97683.55
2018-08-09T10:16:19.474Z,97677.33
2018-08-09T10:18:48.666Z,97677.26
2018-08-09T10:21:18.032Z,97676.80
2018-08-09T10:23:47.201Z,97671.16
2018-08-09T10:26:16.274Z,97671.73
2018-08-09T10:28:47.487Z,97677.08
2018-08-09T10:31:16.479Z,97676.59
2018-08-09T10:33:45.710Z,97673.98
2018-08-09T10:36:15.432Z,97675.08
2018-08-09T10:38:44.551Z,97668.72
2018-08-09T10:41:14.592Z,97668.53
2018-08-09T10:43:43.685Z,97663.98
2018-08-09T10:46:13.272Z,97674.55
2018-08-09T10:48:43.215Z,97659.22
2018-08-09T10:51:12.584Z,97671.47
2018-08-09T10:53:41.906Z,97667.02
2018-08-09T10:56:11.117Z,97666.52
2018-08-09T10:58:40.611Z,97662.09
2018-08-09T11:01:12.334Z,97666.98
2018-08-09T11:03:41.665Z,97664.90
2018-08-09T11:06:10.784Z,97655.49
2018-08-09T11:08:39.882Z,97653.03
2018-08-09T11:11:13.434Z,97658.67
2018-08-09T11:13:45.082Z,97641.98
2018-08-09T11:16:15.740Z,97646.81
2018-08-09T11:18:45.318Z,97646.97
2018-08-09T11:21:16.490Z,97632.92
2018-08-09T11:23:45.659Z,97635.98
2018-08-09T11:26:16.496Z,97636.48
2018-08-09T11:29:19.364Z,97637.38
2018-08-09T11:32:16.809Z,97640.36
2018-08-09T11:35:00.591Z,97642.18
2018-08-09T11:37:55.297Z,97636.61
2018-08-09T11:43:40.356Z,97633.59
2018-08-09T11:46:13.550Z,97627.16
2018-08-09T11:48:44.663Z,97628.55
2018-08-09T11:51:23.480Z,97621.97
2018-08-09T11:53:54.666Z,97617.45
2018-08-09T11:56:51.555Z,97618.45
2018-08-09T11:59:21.282Z,97619.52
2018-08-09T12:01:50.680Z,97614.02
2018-08-09T12:04:19.996Z,97609.38
2018-08-09T12:06:49.174Z,97612.19
2018-08-09T12:09:18.475Z,97605.72
2018-08-09T12:11:47.868Z,97604.73
2018-08-09T12:14:16.975Z,97602.66
2018-08-09T12:16:46.037Z,97600.11
2018-08-09T12:19:15.817Z,97594.48
2018-08-09T12:21:44.928Z,97593.30
2018-08-09T12:24:14.808Z,97595.27
2018-08-09T12:26:43.869Z,97596.75
2018-08-09T12:29:13.582Z,97592.84
2018-08-09T12:31:42.898Z,97598.08
2018-08-09T12:34:12.297Z,97594.48
2018-08-09T12:36:41.564Z,97603.16
2018-08-09T12:42:24.879Z,97610.55
2018-08-09T12:45:16.004Z,97593.36
2018-08-09T12:48:08.607Z,97607.20
2018-08-09T12:51:01.408Z,97606.58
2018-08-09T12:53:56.880Z,97604.66
2018-08-09T12:56:27.645Z,97598.48
2018-08-09T12:58:56.779Z,97593.73
2018-08-09T13:01:26.375Z,97594.00
2018-08-09T13:03:55.391Z,97589.13
2018-08-09T13:06:24.641Z,97600.91
2018-08-09T13:08:54.096Z,97596.97
2018-08-09T13:11:23.867Z,97594.52
2018-08-09T13:13:54.925Z,97589.03
2018-08-09T13:16:24.704Z,97583.36
2018-08-09T13:18:56.084Z,97577.77
2018-08-09T13:21:26.454Z,97565.59
2018-08-09T13:23:57.931Z,97578.69
2018-08-09T13:26:27.159Z,97567.26
2018-08-09T13:28:56.943Z,97564.29
2018-08-09T13:31:26.073Z,97555.17
2018-08-09T13:33:55.347Z,97561.59
2018-08-09T13:36:24.552Z,97563.91
2018-08-09T13:38:53.723Z,97565.73
2018-08-09T13:41:22.783Z,97560.58
2018-08-09T13:43:51.858Z,97556.99
2018-08-09T13:46:20.934Z,97562.59
2018-08-09T13:48:50.147Z,97565.20
2018-08-09T13:51:19.292Z,97562.33
2018-08-09T13:53:48.652Z,97555.77
2018-08-09T13:56:18.748Z,97559.31
2018-08-09T13:58:49.885Z,97561.57
2018-08-09T14:01:19.173Z,97559.95
2018-08-09T14:03:48.147Z,97558.12
2018-08-09T14:06:17.345Z,97545.07
2018-08-09T14:08:46.578Z,97547.09
2018-08-09T14:11:15.751Z,97544.31
2018-08-09T14:13:44.839Z,97542.53
2018-08-09T14:16:14.599Z,97537.34
2018-08-09T14:18:43.741Z,97530.13
2018-08-09T14:21:14.335Z,97539.58
2018-08-09T14:23:43.342Z,97533.59
2018-08-09T14:26:13.559Z,97528.02
2018-08-09T14:28:49.301Z,97524.19
2018-08-09T14:31:18.340Z,97520.83
2018-08-09T14:33:53.837Z,97516.63
2018-08-09T14:36:23.370Z,97509.20
2018-08-09T14:38:52.697Z,97517.77
2018-08-09T14:41:21.833Z,97523.08
2018-08-09T14:43:50.871Z,97524.41
2018-08-09T14:46:20.149Z,97524.81
2018-08-09T14:48:49.336Z,97510.45
2018-08-09T14:51:18.517Z,97491.67
2018-08-09T14:53:47.777Z,97504.03
2018-08-09T14:56:17.172Z,97516.83
2018-08-09T14:58:46.909Z,97517.20
2018-08-09T15:01:16.399Z,97523.30
2018-08-09T15:03:47.103Z,97521.69
2018-08-09T15:06:16.174Z,97525.23
2018-08-09T15:08:45.402Z,97528.77
2018-08-09T15:11:15.200Z,97535.22
2018-08-09T15:13:44.346Z,97541.19
2018-08-09T15:16:14.512Z,97550.53
2018-08-09T15:18:44.852Z,97545.43
2018-08-09T15:21:15.910Z,97550.42
2018-08-09T15:23:49.798Z,97551.25
2018-08-09T15:26:18.802Z,97547.07
2018-08-09T15:28:48.130Z,97545.56
2018-08-09T15:31:17.154Z,97552.09
2018-08-09T15:33:48.076Z,97536.81
2018-08-09T15:36:18.385Z,97534.86
2018-08-09T15:38:47.581Z,97535.05
2018-08-09T15:41:16.692Z,97534.84
2018-08-09T15:43:49.447Z,97531.77
2018-08-09T15:46:21.063Z,97532.47
2018-08-09T15:48:51.037Z,97530.56
2018-08-09T15:51:21.152Z,97536.83
2018-08-09T15:53:52.777Z,97537.78
2018-08-09T15:56:22.109Z,97532.41
2018-08-09T15:58:51.412Z,97534.78
2018-08-09T16:01:20.528Z,97537.19
2018-08-09T16:03:49.680Z,97531.45
2018-08-09T16:06:19.389Z,97531.94
2018-08-09T16:08:48.773Z,97521.03
2018-08-09T16:11:19.195Z,97520.48
2018-08-09T16:13:50.535Z,97518.76
2018-08-09T16:16:23.110Z,97514.02
2018-08-09T16:18:55.539Z,97516.72
2018-08-09T16:21:34.649Z,97520.95
2018-08-09T16:24:09.960Z,97517.67
2018-08-09T16:26:41.054Z,97512.77
2018-08-09T16:29:17.185Z,97507.52
2018-08-09T16:31:46.427Z,97508.53
2018-08-09T16:34:15.675Z,97506.06
2018-08-09T16:36:45.105Z,97505.52
2018-08-09T16:39:15.336Z,97506.03
2018-08-09T16:41:45.489Z,97513.95
2018-08-09T16:44:15.144Z,97511.61
2018-08-09T16:46:44.219Z,97515.20
2018-08-09T16:49:13.794Z,97516.79
2018-08-09T16:51:42.852Z,97526.28
2018-08-09T16:54:12.368Z,97532.98
2018-08-09T16:56:42.102Z,97536.23
2018-08-09T16:59:12.066Z,97544.40
2018-08-09T17:01:42.270Z,97545.81
2018-08-09T17:04:13.123Z,97558.45
2018-08-09T17:06:42.286Z,97561.52
2018-08-09T17:09:14.549Z,97576.98
2018-08-09T17:11:46.028Z,97571.61
2018-08-09T17:14:16.813Z,97578.09
2018-08-09T17:16:46.163Z,97568.32
2018-08-09T17:19:15.708Z,97587.16
2018-08-09T17:21:44.943Z,97587.33
2018-08-09T17:24:14.498Z,97588.97
2018-08-09T17:26:43.760Z,97592.76
2018-08-09T17:29:13.096Z,97593.89
2018-08-09T17:31:42.079Z,97596.43
2018-08-09T17:34:11.838Z,97595.69
2018-08-09T17:36:41.070Z,97600.91
2018-08-09T17:39:12.402Z,97597.50
2018-08-09T17:41:41.684Z,97596.63
2018-08-09T17:44:12.227Z,97594.44
2018-08-09T17:46:41.605Z,97588.17
2018-08-09T17:49:10.683Z,97587.48
2018-08-09T17:51:39.838Z,97586.19
2018-08-09T17:54:08.973Z,97594.23
2018-08-09T17:56:39.650Z,97591.19
2018-08-09T17:59:18.647Z,97598.20
2018-08-09T18:01:49.973Z,97593.51
2018-08-09T18:04:22.405Z,97600.80
2018-08-09T18:06:53.803Z,97602.75
2018-08-09T18:09:43.408Z,97604.47
2018-08-09T18:12:15.746Z,97612.50
2018-08-09T18:14:46.452Z,97613.19
2018-08-09T18:17:16.465Z,97612.07
2018-08-09T18:19:45.632Z,97611.66
2018-08-09T18:22:15.346Z,97609.77
2018-08-09T18:24:44.575Z,97611.98
2018-08-09T18:27:14.660Z,97611.88
2018-08-09T18:29:43.777Z,97618.95
2018-08-09T18:32:13.621Z,97619.20
2018-08-09T18:34:42.729Z,97624.17
2018-08-09T18:37:12.826Z,97628.34
2018-08-09T18:39:41.919Z,97633.09
2018-08-09T18:42:10.903Z,97643.73
2018-08-09T18:44:40.090Z,97646.50
2018-08-09T18:47:09.547Z,97652.95
2018-08-09T18:49:39.335Z,97654.20
2018-08-09T18:52:09.625Z,97656.16
2018-08-09T18:54:38.857Z,97652.71
2018-08-09T18:57:09.279Z,97654.91
2018-08-09T18:59:38.488Z,97656.08
2018-08-09T19:02:07.712Z,97661.77
2018-08-09T19:07:33.751Z,97665.76
2018-08-09T19:10:03.291Z,97668.37
2018-08-09T19:12:32.478Z,97672.74
2018-08-09T19:15:01.924Z,97676.47
2018-08-09T19:17:31.267Z,97682.36
2018-08-09T19:20:01.030Z,97679.72
2018-08-09T19:22:30.247Z,97685.10
2018-08-09T19:24:59.308Z,97687.05
2018-08-09T19:27:30.109Z,97695.66
2018-08-09T19:30:01.159Z,97694.69
2018-08-09T19:32:30.613Z,97694.96
2018-08-09T19:35:00.757Z,97696.12
2018-08-09T19:37:30.309Z,97706.84
2018-08-09T19:40:19.980Z,97714.80
2018-08-09T19:42:50.171Z,97713.22
2018-08-09T19:45:39.811Z,97706.34
2018-08-09T19:48:09.992Z,97705.39
2018-08-09T19:50:39.472Z,97701.86
2018-08-09T19:53:10.748Z,97706.83
2018-08-09T19:55:40.042Z,97715.83
2018-08-09T19:58:09.357Z,97712.77
2018-08-09T20:00:44.741Z,97720.73
2018-08-09T20:03:17.988Z,97720.52
2018-08-09T20:06:01.586Z,97717.39
2018-08-09T20:08:31.104Z,97718.72
2018-08-09T20:11:05.913Z,97724.09
2018-08-09T20:13:47.748Z,97718.34
2018-08-09T20:16:49.755Z,97720.11
2018-08-09T20:19:19.515Z,97725.08
2018-08-09T20:21:49.039Z,97734.25
2018-08-09T20:24:39.161Z,97733.95
2018-08-09T20:27:10.140Z,97735.47
2018-08-09T20:29:39.372Z,97741.38
2018-08-09T20:32:09.446Z,97748.36
2018-08-09T20:34:40.692Z,97748.95
2018-08-09T20:37:10.110Z,97749.92
2018-08-09T20:39:42.658Z,97746.36
2018-08-09T20:42:35.427Z,97758.91
2018-08-09T20:45:05.386Z,97757.22
2018-08-09T20:47:35.345Z,97760.67
2018-08-09T20:50:05.851Z,97755.78
2018-08-09T20:52:35.219Z,97757.70
2018-08-09T20:55:05.761Z,97763.75
2018-08-09T20:57:36.730Z,97759.19
2018-08-09T21:00:20.863Z,97768.83
2018-08-09T21:02:52.297Z,97770.44
2018-08-09T21:05:25.946Z,97777.48
2018-08-09T21:07:55.942Z,97778.55
2018-08-09T21:10:25.973Z,97769.91
2018-08-09T21:13:01.820Z,97784.33
2018-08-09T21:15:31.523Z,97790.25
2018-08-09T21:18:00.845Z,97789.48
2018-08-09T21:20:30.025Z,97791.48
2018-08-09T21:23:02.388Z,97791.47
2018-08-09T21:25:48.567Z,97792.12
2018-08-09T21:28:21.473Z,97796.73
2018-08-09T21:31:24.306Z,97804.20
2018-08-09T21:33:54.764Z,97804.45
2018-08-09T21:39:26.486Z,97792.05
2018-08-09T21:41:55.774Z,97802.95
2018-08-09T21:44:25.591Z,97801.14
2018-08-09T21:46:54.883Z,97797.61
2018-08-09T21:49:25.326Z,97801.23
2018-08-09T21:54:38.283Z,97818.30
2018-08-09T21:57:10.310Z,97827.00
2018-08-09T21:59:39.578Z,97832.89
2018-08-09T22:02:08.725Z,97838.56
2018-08-09T22:04:42.211Z,97837.72
2018-08-09T22:07:16.416Z,97838.27
2018-08-09T22:09:50.344Z,97838.84
2018-08-09T22:12:24.565Z,97841.16
2018-08-09T22:14:58.973Z,97842.30
2018-08-09T22:17:33.095Z,97831.89
2018-08-09T22:20:07.124Z,97837.67
2018-08-09T22:22:44.892Z,97844.69
2018-08-09T22:25:16.833Z,97839.72
2018-08-09T22:28:22.735Z,97841.61
2018-08-09T22:30:52.440Z,97840.28
2018-08-09T22:33:21.656Z,97838.16
2018-08-09T22:35:50.841Z,97842.67
2018-08-09T22:38:20.081Z,97838.52
2018-08-09T22:40:49.644Z,97843.45
2018-08-09T22:43:18.954Z,97848.55
2018-08-09T22:45:48.151Z,97845.95
2018-08-09T22:48:17.371Z,97848.80
2018-08-09T22:50:46.816Z,97856.22
2018-08-09T22:53:16.816Z,97852.98
2018-08-09T22:55:46.678Z,97853.54
2018-08-09T23:03:57.477Z,97842.28
2018-08-09T23:09:38.899Z,97850.03
2018-08-09T23:12:26.053Z,97847.39
2018-08-09T23:14:57.681Z,97842.30
2018-08-09T23:21:33.716Z,97838.72
2018-08-09T23:24:03.377Z,97832.25
2018-08-09T23:26:32.776Z,97837.02
2018-08-09T23:29:02.506Z,97834.03
2018-08-09T23:31:34.581Z,97836.37
2018-08-09T23:34:04.365Z,97831.80
2018-08-09T23:36:33.564Z,97827.63
2018-08-09T23:39:18.397Z,97829.23
2018-08-09T23:41:49.038Z,97830.47
2018-08-09T23:44:18.147Z,97823.60
2018-08-09T23:46:50.338Z,97835.34
2018-08-09T23:49:25.471Z,97826.08
2018-08-09T23:51:55.185Z,97824.10
2018-08-09T23:54:26.283Z,97821.14
2018-08-09T23:56:57.772Z,97818.35
2018-08-09T23:59:32.328Z,97824.71
